sensor_id;sensor_type;location;lat;lon;timestamp;temperature;humidity
1175;DHT22;576;48.418;10.074;2023-05-20T00:01:17;20.70;65.50
1175;DHT22;576;48.418;10.074;2023-05-20T00:03:46;20.80;65.90
1175;DHT22;576;48.418;10.074;2023-05-20T00:06:14;20.80;65.40
1175;DHT22;576;48.418;10.074;2023-05-20T00:08:42;20.80;65.40
1175;DHT22;576;48.418;10.074;2023-05-20T00:11:10;20.70;65.50
1175;DHT22;576;48.418;10.074;2023-05-20T00:13:40;20.70;65.50
1175;DHT22;576;48.418;10.074;2023-05-20T00:16:08;20.60;65.70
1175;DHT22;576;48.418;10.074;2023-05-20T00:18:36;20.60;66.00
1175;DHT22;576;48.418;10.074;2023-05-20T00:21:05;20.50;66.20
1175;DHT22;576;48.418;10.074;2023-05-20T00:23:33;20.40;66.40
1175;DHT22;576;48.418;10.074;2023-05-20T00:26:01;20.40;66.40
1175;DHT22;576;48.418;10.074;2023-05-20T00:28:29;20.50;66.50
1175;DHT22;576;48.418;10.074;2023-05-20T00:30:59;20.50;66.40
1175;DHT22;576;48.418;10.074;2023-05-20T00:33:27;20.50;66.20
1175;DHT22;576;48.418;10.074;2023-05-20T00:35:55;20.50;66.40
1175;DHT22;576;48.418;10.074;2023-05-20T00:38:24;20.50;66.10
1175;DHT22;576;48.418;10.074;2023-05-20T00:40:52;20.50;66.30
1175;DHT22;576;48.418;10.074;2023-05-20T00:43:20;20.50;66.30
1175;DHT22;576;48.418;10.074;2023-05-20T00:45:51;20.50;66.40
1175;DHT22;576;48.418;10.074;2023-05-20T00:48:21;20.40;66.70
1175;DHT22;576;48.418;10.074;2023-05-20T00:50:50;20.50;66.50
1175;DHT22;576;48.418;10.074;2023-05-20T00:53:19;20.50;66.60
1175;DHT22;576;48.418;10.074;2023-05-20T00:55:48;20.60;66.20
1175;DHT22;576;48.418;10.074;2023-05-20T00:58:16;20.60;66.00
1175;DHT22;576;48.418;10.074;2023-05-20T01:00:45;20.60;66.10
1175;DHT22;576;48.418;10.074;2023-05-20T01:03:14;20.60;66.10
1175;DHT22;576;48.418;10.074;2023-05-20T01:05:44;20.60;66.10
1175;DHT22;576;48.418;10.074;2023-05-20T01:08:12;20.60;66.20
1175;DHT22;576;48.418;10.074;2023-05-20T01:10:44;20.60;66.10
1175;DHT22;576;48.418;10.074;2023-05-20T01:13:16;20.50;66.40
1175;DHT22;576;48.418;10.074;2023-05-20T01:15:47;20.60;66.30
1175;DHT22;576;48.418;10.074;2023-05-20T01:18:16;20.60;66.10
1175;DHT22;576;48.418;10.074;2023-05-20T01:20:49;20.50;66.20
1175;DHT22;576;48.418;10.074;2023-05-20T01:23:21;20.40;66.50
1175;DHT22;576;48.418;10.074;2023-05-20T01:25:49;20.50;66.40
1175;DHT22;576;48.418;10.074;2023-05-20T01:28:17;20.50;66.00
1175;DHT22;576;48.418;10.074;2023-05-20T01:30:50;20.40;66.40
1175;DHT22;576;48.418;10.074;2023-05-20T01:33:20;20.40;66.40
1175;DHT22;576;48.418;10.074;2023-05-20T01:35:50;20.40;66.40
1175;DHT22;576;48.418;10.074;2023-05-20T01:38:20;20.50;66.20
1175;DHT22;576;48.418;10.074;2023-05-20T01:40:50;20.40;66.60
1175;DHT22;576;48.418;10.074;2023-05-20T01:43:20;20.40;66.30
1175;DHT22;576;48.418;10.074;2023-05-20T01:45:49;20.40;66.50
1175;DHT22;576;48.418;10.074;2023-05-20T01:48:17;20.40;66.70
1175;DHT22;576;48.418;10.074;2023-05-20T01:50:46;20.40;66.30
1175;DHT22;576;48.418;10.074;2023-05-20T01:53:15;20.40;66.40
1175;DHT22;576;48.418;10.074;2023-05-20T01:55:45;20.50;66.70
1175;DHT22;576;48.418;10.074;2023-05-20T01:58:13;20.50;66.20
1175;DHT22;576;48.418;10.074;2023-05-20T02:00:43;20.50;66.60
1175;DHT22;576;48.418;10.074;2023-05-20T02:03:11;20.50;66.40
1175;DHT22;576;48.418;10.074;2023-05-20T02:05:39;20.50;66.40
1175;DHT22;576;48.418;10.074;2023-05-20T02:08:08;20.50;66.50
1175;DHT22;576;48.418;10.074;2023-05-20T02:10:36;20.50;66.50
1175;DHT22;576;48.418;10.074;2023-05-20T02:13:06;20.50;66.70
1175;DHT22;576;48.418;10.074;2023-05-20T02:15:34;20.40;66.40
1175;DHT22;576;48.418;10.074;2023-05-20T02:18:03;20.30;66.80
1175;DHT22;576;48.418;10.074;2023-05-20T02:20:34;20.30;67.00
1175;DHT22;576;48.418;10.074;2023-05-20T02:23:02;20.30;67.00
1175;DHT22;576;48.418;10.074;2023-05-20T02:25:31;20.20;67.30
1175;DHT22;576;48.418;10.074;2023-05-20T02:28:00;20.00;67.60
1175;DHT22;576;48.418;10.074;2023-05-20T02:30:32;20.20;67.50
1175;DHT22;576;48.418;10.074;2023-05-20T02:33:01;20.20;67.40
1175;DHT22;576;48.418;10.074;2023-05-20T02:35:30;20.10;67.50
1175;DHT22;576;48.418;10.074;2023-05-20T02:37:59;20.10;68.00
1175;DHT22;576;48.418;10.074;2023-05-20T02:40:27;20.20;67.40
1175;DHT22;576;48.418;10.074;2023-05-20T02:42:55;20.20;67.30
1175;DHT22;576;48.418;10.074;2023-05-20T02:45:23;20.20;67.30
1175;DHT22;576;48.418;10.074;2023-05-20T02:47:53;20.20;67.40
1175;DHT22;576;48.418;10.074;2023-05-20T02:50:21;20.20;67.30
1175;DHT22;576;48.418;10.074;2023-05-20T02:52:49;20.20;67.50
1175;DHT22;576;48.418;10.074;2023-05-20T02:55:18;20.20;67.50
1175;DHT22;576;48.418;10.074;2023-05-20T02:57:47;20.10;67.80
1175;DHT22;576;48.418;10.074;2023-05-20T03:00:16;20.00;68.20
1175;DHT22;576;48.418;10.074;2023-05-20T03:02:44;20.00;68.00
1175;DHT22;576;48.418;10.074;2023-05-20T03:05:15;20.00;68.00
1175;DHT22;576;48.418;10.074;2023-05-20T03:07:43;20.00;68.00
1175;DHT22;576;48.418;10.074;2023-05-20T03:10:14;20.10;68.00
1175;DHT22;576;48.418;10.074;2023-05-20T03:12:43;20.10;67.90
1175;DHT22;576;48.418;10.074;2023-05-20T03:15:11;20.00;67.80
1175;DHT22;576;48.418;10.074;2023-05-20T03:17:39;19.90;68.00
1175;DHT22;576;48.418;10.074;2023-05-20T03:20:08;19.90;68.60
1175;DHT22;576;48.418;10.074;2023-05-20T03:22:41;19.90;68.20
1175;DHT22;576;48.418;10.074;2023-05-20T03:25:09;19.90;68.30
1175;DHT22;576;48.418;10.074;2023-05-20T03:27:37;19.80;68.60
1175;DHT22;576;48.418;10.074;2023-05-20T03:30:07;19.80;68.70
1175;DHT22;576;48.418;10.074;2023-05-20T03:32:35;20.00;68.30
1175;DHT22;576;48.418;10.074;2023-05-20T03:35:05;20.00;68.00
1175;DHT22;576;48.418;10.074;2023-05-20T03:37:34;20.00;68.20
1175;DHT22;576;48.418;10.074;2023-05-20T03:40:06;19.90;68.40
1175;DHT22;576;48.418;10.074;2023-05-20T03:42:36;20.00;68.00
1175;DHT22;576;48.418;10.074;2023-05-20T03:45:06;20.00;68.10
1175;DHT22;576;48.418;10.074;2023-05-20T03:47:42;19.90;68.40
1175;DHT22;576;48.418;10.074;2023-05-20T03:50:10;19.80;68.70
1175;DHT22;576;48.418;10.074;2023-05-20T03:52:40;19.90;68.50
1175;DHT22;576;48.418;10.074;2023-05-20T03:55:10;19.80;68.80
1175;DHT22;576;48.418;10.074;2023-05-20T03:57:38;19.90;68.70
1175;DHT22;576;48.418;10.074;2023-05-20T04:00:07;19.90;68.40
1175;DHT22;576;48.418;10.074;2023-05-20T04:02:43;19.90;68.50
1175;DHT22;576;48.418;10.074;2023-05-20T04:05:15;19.90;68.60
1175;DHT22;576;48.418;10.074;2023-05-20T04:07:43;19.90;68.60
1175;DHT22;576;48.418;10.074;2023-05-20T04:10:14;19.90;68.60
1175;DHT22;576;48.418;10.074;2023-05-20T04:12:43;19.80;68.80
1175;DHT22;576;48.418;10.074;2023-05-20T04:15:11;19.80;68.80
1175;DHT22;576;48.418;10.074;2023-05-20T04:17:50;19.80;68.80
1175;DHT22;576;48.418;10.074;2023-05-20T04:20:18;19.90;68.70
1175;DHT22;576;48.418;10.074;2023-05-20T04:22:48;19.90;68.70
1175;DHT22;576;48.418;10.074;2023-05-20T04:25:17;20.00;68.50
1175;DHT22;576;48.418;10.074;2023-05-20T04:27:46;20.00;68.50
1175;DHT22;576;48.418;10.074;2023-05-20T04:30:16;20.00;68.60
1175;DHT22;576;48.418;10.074;2023-05-20T04:32:45;20.00;68.30
1175;DHT22;576;48.418;10.074;2023-05-20T04:35:14;20.00;68.50
1175;DHT22;576;48.418;10.074;2023-05-20T04:37:45;20.00;68.50
1175;DHT22;576;48.418;10.074;2023-05-20T04:40:14;20.00;68.50
1175;DHT22;576;48.418;10.074;2023-05-20T04:42:46;20.00;68.40
1175;DHT22;576;48.418;10.074;2023-05-20T04:45:15;19.90;68.70
1175;DHT22;576;48.418;10.074;2023-05-20T04:47:43;20.00;68.60
1175;DHT22;576;48.418;10.074;2023-05-20T04:50:13;20.00;68.40
1175;DHT22;576;48.418;10.074;2023-05-20T04:52:41;20.00;68.70
1175;DHT22;576;48.418;10.074;2023-05-20T04:55:11;19.90;68.60
1175;DHT22;576;48.418;10.074;2023-05-20T04:57:41;20.00;68.50
1175;DHT22;576;48.418;10.074;2023-05-20T05:00:13;19.90;68.90
1175;DHT22;576;48.418;10.074;2023-05-20T05:02:41;20.00;68.70
1175;DHT22;576;48.418;10.074;2023-05-20T05:05:10;20.10;68.30
1175;DHT22;576;48.418;10.074;2023-05-20T05:07:38;20.10;68.40
1175;DHT22;576;48.418;10.074;2023-05-20T05:10:07;20.10;68.40
1175;DHT22;576;48.418;10.074;2023-05-20T05:12:36;20.10;68.30
1175;DHT22;576;48.418;10.074;2023-05-20T05:15:05;20.20;68.30
1175;DHT22;576;48.418;10.074;2023-05-20T05:17:34;20.20;67.90
1175;DHT22;576;48.418;10.074;2023-05-20T05:20:05;20.20;67.90
1175;DHT22;576;48.418;10.074;2023-05-20T05:22:34;20.30;67.70
1175;DHT22;576;48.418;10.074;2023-05-20T05:25:03;20.30;67.70
1175;DHT22;576;48.418;10.074;2023-05-20T05:27:32;20.30;67.80
1175;DHT22;576;48.418;10.074;2023-05-20T05:30:01;20.30;68.00
1175;DHT22;576;48.418;10.074;2023-05-20T05:32:30;20.30;68.00
1175;DHT22;576;48.418;10.074;2023-05-20T05:34:59;20.40;67.80
1175;DHT22;576;48.418;10.074;2023-05-20T05:37:27;20.40;67.70
1175;DHT22;576;48.418;10.074;2023-05-20T05:39:56;20.40;67.60
1175;DHT22;576;48.418;10.074;2023-05-20T05:42:25;20.40;67.60
1175;DHT22;576;48.418;10.074;2023-05-20T05:44:54;20.40;68.00
1175;DHT22;576;48.418;10.074;2023-05-20T05:47:22;20.40;67.60
1175;DHT22;576;48.418;10.074;2023-05-20T05:49:55;20.50;67.50
1175;DHT22;576;48.418;10.074;2023-05-20T05:52:25;20.50;68.00
1175;DHT22;576;48.418;10.074;2023-05-20T05:54:53;20.50;67.60
1175;DHT22;576;48.418;10.074;2023-05-20T05:57:22;20.50;67.50
1175;DHT22;576;48.418;10.074;2023-05-20T05:59:50;20.60;67.30
1175;DHT22;576;48.418;10.074;2023-05-20T06:02:19;20.60;67.40
1175;DHT22;576;48.418;10.074;2023-05-20T06:04:47;20.60;67.20
1175;DHT22;576;48.418;10.074;2023-05-20T06:07:16;20.70;67.80
1175;DHT22;576;48.418;10.074;2023-05-20T06:09:46;20.80;66.80
1175;DHT22;576;48.418;10.074;2023-05-20T06:12:14;20.90;66.60
1175;DHT22;576;48.418;10.074;2023-05-20T06:14:42;20.80;66.60
1175;DHT22;576;48.418;10.074;2023-05-20T06:17:10;20.80;66.90
1175;DHT22;576;48.418;10.074;2023-05-20T06:19:39;20.90;66.80
1175;DHT22;576;48.418;10.074;2023-05-20T06:22:07;21.00;66.60
1175;DHT22;576;48.418;10.074;2023-05-20T06:24:36;21.10;66.10
1175;DHT22;576;48.418;10.074;2023-05-20T06:27:06;21.20;66.40
1175;DHT22;576;48.418;10.074;2023-05-20T06:29:34;21.10;65.90
1175;DHT22;576;48.418;10.074;2023-05-20T06:32:03;21.20;66.00
1175;DHT22;576;48.418;10.074;2023-05-20T06:34:32;21.20;65.70
1175;DHT22;576;48.418;10.074;2023-05-20T06:37:00;21.30;65.40
1175;DHT22;576;48.418;10.074;2023-05-20T06:39:28;21.40;65.70
1175;DHT22;576;48.418;10.074;2023-05-20T06:41:57;21.50;64.80
1175;DHT22;576;48.418;10.074;2023-05-20T06:44:31;21.30;65.10
1175;DHT22;576;48.418;10.074;2023-05-20T06:47:20;21.20;65.20
1175;DHT22;576;48.418;10.074;2023-05-20T06:49:50;21.10;66.00
1175;DHT22;576;48.418;10.074;2023-05-20T06:52:18;21.20;65.70
1175;DHT22;576;48.418;10.074;2023-05-20T06:54:46;21.30;65.20
1175;DHT22;576;48.418;10.074;2023-05-20T06:57:16;21.50;64.80
1175;DHT22;576;48.418;10.074;2023-05-20T06:59:46;21.40;64.90
1175;DHT22;576;48.418;10.074;2023-05-20T07:02:15;21.10;65.60
1175;DHT22;576;48.418;10.074;2023-05-20T07:04:44;21.00;66.10
1175;DHT22;576;48.418;10.074;2023-05-20T07:07:12;20.90;66.10
1175;DHT22;576;48.418;10.074;2023-05-20T07:09:44;20.70;66.70
1175;DHT22;576;48.418;10.074;2023-05-20T07:12:12;20.80;66.30
1175;DHT22;576;48.418;10.074;2023-05-20T07:14:41;20.70;66.30
1175;DHT22;576;48.418;10.074;2023-05-20T07:17:12;20.60;66.80
1175;DHT22;576;48.418;10.074;2023-05-20T07:19:42;20.60;66.80
1175;DHT22;576;48.418;10.074;2023-05-20T07:22:10;20.40;67.00
1175;DHT22;576;48.418;10.074;2023-05-20T07:24:52;20.30;67.10
1175;DHT22;576;48.418;10.074;2023-05-20T07:27:20;20.30;67.30
1175;DHT22;576;48.418;10.074;2023-05-20T07:29:49;20.10;67.60
1175;DHT22;576;48.418;10.074;2023-05-20T07:32:19;20.10;67.90
1175;DHT22;576;48.418;10.074;2023-05-20T07:38:47;20.20;68.10
1175;DHT22;576;48.418;10.074;2023-05-20T07:41:29;20.40;67.50
1175;DHT22;576;48.418;10.074;2023-05-20T07:43:58;20.60;67.40
1175;DHT22;576;48.418;10.074;2023-05-20T07:46:26;20.80;67.60
1175;DHT22;576;48.418;10.074;2023-05-20T07:48:56;21.10;66.70
1175;DHT22;576;48.418;10.074;2023-05-20T07:51:24;21.40;66.20
1175;DHT22;576;48.418;10.074;2023-05-20T07:53:53;21.70;65.60
1175;DHT22;576;48.418;10.074;2023-05-20T07:56:21;21.90;64.70
1175;DHT22;576;48.418;10.074;2023-05-20T07:58:54;22.10;64.30
1175;DHT22;576;48.418;10.074;2023-05-20T08:01:27;22.20;63.90
1175;DHT22;576;48.418;10.074;2023-05-20T08:03:57;22.30;63.50
1175;DHT22;576;48.418;10.074;2023-05-20T08:06:26;22.40;63.30
1175;DHT22;576;48.418;10.074;2023-05-20T08:08:56;22.50;62.80
1175;DHT22;576;48.418;10.074;2023-05-20T08:11:30;22.50;62.80
1175;DHT22;576;48.418;10.074;2023-05-20T08:14:00;22.60;62.60
1175;DHT22;576;48.418;10.074;2023-05-20T08:16:36;22.70;62.40
1175;DHT22;576;48.418;10.074;2023-05-20T08:19:07;22.70;62.20
1175;DHT22;576;48.418;10.074;2023-05-20T08:21:36;22.70;62.20
1175;DHT22;576;48.418;10.074;2023-05-20T08:24:06;22.70;62.20
1175;DHT22;576;48.418;10.074;2023-05-20T08:26:35;22.70;62.20
1175;DHT22;576;48.418;10.074;2023-05-20T08:29:05;22.80;62.20
1175;DHT22;576;48.418;10.074;2023-05-20T08:31:34;22.80;62.20
1175;DHT22;576;48.418;10.074;2023-05-20T08:34:05;22.80;62.00
1175;DHT22;576;48.418;10.074;2023-05-20T08:36:35;22.80;61.90
1175;DHT22;576;48.418;10.074;2023-05-20T08:39:04;22.80;62.00
1175;DHT22;576;48.418;10.074;2023-05-20T08:41:34;22.90;61.80
1175;DHT22;576;48.418;10.074;2023-05-20T08:44:03;22.70;62.10
1175;DHT22;576;48.418;10.074;2023-05-20T08:46:35;22.50;62.60
1175;DHT22;576;48.418;10.074;2023-05-20T08:49:07;22.40;62.90
1175;DHT22;576;48.418;10.074;2023-05-20T08:51:36;22.40;63.10
1175;DHT22;576;48.418;10.074;2023-05-20T08:54:06;22.50;63.30
1175;DHT22;576;48.418;10.074;2023-05-20T08:56:36;22.60;63.20
1175;DHT22;576;48.418;10.074;2023-05-20T08:59:05;22.70;63.00
1175;DHT22;576;48.418;10.074;2023-05-20T09:01:40;22.80;62.80
1175;DHT22;576;48.418;10.074;2023-05-20T09:04:11;22.90;62.50
1175;DHT22;576;48.418;10.074;2023-05-20T09:06:43;23.00;62.30
1175;DHT22;576;48.418;10.074;2023-05-20T09:09:12;23.00;62.20
1175;DHT22;576;48.418;10.074;2023-05-20T09:11:42;23.00;62.00
1175;DHT22;576;48.418;10.074;2023-05-20T09:14:11;23.00;62.20
1175;DHT22;576;48.418;10.074;2023-05-20T09:16:39;23.00;62.10
1175;DHT22;576;48.418;10.074;2023-05-20T09:19:10;23.10;62.00
1175;DHT22;576;48.418;10.074;2023-05-20T09:21:40;23.00;61.80
1175;DHT22;576;48.418;10.074;2023-05-20T09:24:08;22.90;62.20
1175;DHT22;576;48.418;10.074;2023-05-20T09:26:36;22.90;62.50
1175;DHT22;576;48.418;10.074;2023-05-20T09:29:05;22.90;62.40
1175;DHT22;576;48.418;10.074;2023-05-20T09:31:34;22.90;62.50
1175;DHT22;576;48.418;10.074;2023-05-20T09:34:05;22.90;62.30
1175;DHT22;576;48.418;10.074;2023-05-20T09:36:36;22.90;62.50
1175;DHT22;576;48.418;10.074;2023-05-20T09:39:08;22.90;62.80
1175;DHT22;576;48.418;10.074;2023-05-20T09:41:48;22.90;62.70
1175;DHT22;576;48.418;10.074;2023-05-20T09:44:17;22.90;63.10
1175;DHT22;576;48.418;10.074;2023-05-20T09:46:47;22.90;63.20
1175;DHT22;576;48.418;10.074;2023-05-20T09:49:16;22.90;62.90
1175;DHT22;576;48.418;10.074;2023-05-20T09:51:47;23.00;63.00
1175;DHT22;576;48.418;10.074;2023-05-20T09:54:17;23.00;62.90
1175;DHT22;576;48.418;10.074;2023-05-20T09:56:46;23.10;62.90
1175;DHT22;576;48.418;10.074;2023-05-20T09:59:15;23.00;62.40
1175;DHT22;576;48.418;10.074;2023-05-20T10:01:44;23.00;62.70
1175;DHT22;576;48.418;10.074;2023-05-20T10:04:14;23.10;62.70
1175;DHT22;576;48.418;10.074;2023-05-20T10:07:05;23.00;62.70
1175;DHT22;576;48.418;10.074;2023-05-20T10:09:48;23.10;62.80
1175;DHT22;576;48.418;10.074;2023-05-20T10:12:28;23.10;63.20
1175;DHT22;576;48.418;10.074;2023-05-20T10:15:06;23.00;63.10
1175;DHT22;576;48.418;10.074;2023-05-20T10:17:43;22.90;63.60
1175;DHT22;576;48.418;10.074;2023-05-20T10:20:13;22.90;63.30
1175;DHT22;576;48.418;10.074;2023-05-20T10:22:43;22.90;63.30
1175;DHT22;576;48.418;10.074;2023-05-20T10:25:25;23.00;63.10
1175;DHT22;576;48.418;10.074;2023-05-20T10:28:04;22.90;63.10
1175;DHT22;576;48.418;10.074;2023-05-20T10:30:33;22.90;62.60
1175;DHT22;576;48.418;10.074;2023-05-20T10:33:04;22.90;62.30
1175;DHT22;576;48.418;10.074;2023-05-20T10:35:33;22.80;62.80
1175;DHT22;576;48.418;10.074;2023-05-20T10:38:10;22.90;62.60
1175;DHT22;576;48.418;10.074;2023-05-20T10:40:39;22.90;62.80
1175;DHT22;576;48.418;10.074;2023-05-20T10:43:08;23.00;62.40
1175;DHT22;576;48.418;10.074;2023-05-20T10:45:47;23.00;62.40
1175;DHT22;576;48.418;10.074;2023-05-20T10:48:22;23.10;62.40
1175;DHT22;576;48.418;10.074;2023-05-20T10:50:53;23.20;62.60
1175;DHT22;576;48.418;10.074;2023-05-20T10:53:25;23.20;62.70
1175;DHT22;576;48.418;10.074;2023-05-20T10:56:00;23.30;62.70
1175;DHT22;576;48.418;10.074;2023-05-20T10:58:36;23.40;62.20
1175;DHT22;576;48.418;10.074;2023-05-20T11:01:06;23.50;62.10
1175;DHT22;576;48.418;10.074;2023-05-20T11:03:35;23.50;62.00
1175;DHT22;576;48.418;10.074;2023-05-20T11:06:10;23.60;62.20
1175;DHT22;576;48.418;10.074;2023-05-20T11:08:44;23.50;61.80
1175;DHT22;576;48.418;10.074;2023-05-20T11:11:13;23.50;62.00
1175;DHT22;576;48.418;10.074;2023-05-20T11:13:42;23.50;61.70
1175;DHT22;576;48.418;10.074;2023-05-20T11:16:12;23.40;62.10
1175;DHT22;576;48.418;10.074;2023-05-20T11:18:40;23.40;62.40
1175;DHT22;576;48.418;10.074;2023-05-20T11:21:09;23.40;62.20
1175;DHT22;576;48.418;10.074;2023-05-20T11:23:38;23.30;62.50
1175;DHT22;576;48.418;10.074;2023-05-20T11:26:08;23.30;62.30
1175;DHT22;576;48.418;10.074;2023-05-20T11:28:37;23.30;62.50
1175;DHT22;576;48.418;10.074;2023-05-20T11:31:07;23.30;62.30
1175;DHT22;576;48.418;10.074;2023-05-20T11:33:41;23.30;62.40
1175;DHT22;576;48.418;10.074;2023-05-20T11:36:10;23.40;62.00
1175;DHT22;576;48.418;10.074;2023-05-20T11:38:53;23.50;62.20
1175;DHT22;576;48.418;10.074;2023-05-20T11:41:25;23.60;62.10
1175;DHT22;576;48.418;10.074;2023-05-20T11:43:57;23.60;62.20
1175;DHT22;576;48.418;10.074;2023-05-20T11:46:26;23.60;62.00
1175;DHT22;576;48.418;10.074;2023-05-20T11:48:55;23.60;62.20
1175;DHT22;576;48.418;10.074;2023-05-20T11:51:26;23.70;62.20
1175;DHT22;576;48.418;10.074;2023-05-20T11:53:59;23.70;62.10
1175;DHT22;576;48.418;10.074;2023-05-20T11:56:30;23.80;62.30
1175;DHT22;576;48.418;10.074;2023-05-20T11:58:58;24.00;61.90
1175;DHT22;576;48.418;10.074;2023-05-20T12:01:28;24.10;61.40
1175;DHT22;576;48.418;10.074;2023-05-20T12:03:56;24.30;61.10
1175;DHT22;576;48.418;10.074;2023-05-20T12:06:25;24.50;60.80
1175;DHT22;576;48.418;10.074;2023-05-20T12:08:53;24.60;60.50
1175;DHT22;576;48.418;10.074;2023-05-20T12:11:21;24.70;60.30
1175;DHT22;576;48.418;10.074;2023-05-20T12:13:51;24.80;60.00
1175;DHT22;576;48.418;10.074;2023-05-20T12:16:19;24.90;59.90
1175;DHT22;576;48.418;10.074;2023-05-20T12:18:47;25.00;59.60
1175;DHT22;576;48.418;10.074;2023-05-20T12:21:16;25.10;59.20
1175;DHT22;576;48.418;10.074;2023-05-20T12:23:44;25.00;59.30
1175;DHT22;576;48.418;10.074;2023-05-20T12:26:12;25.00;59.60
1175;DHT22;576;48.418;10.074;2023-05-20T12:28:40;25.00;59.50
1175;DHT22;576;48.418;10.074;2023-05-20T12:31:10;25.10;59.50
1175;DHT22;576;48.418;10.074;2023-05-20T12:33:38;25.10;59.40
1175;DHT22;576;48.418;10.074;2023-05-20T12:36:07;25.10;59.40
1175;DHT22;576;48.418;10.074;2023-05-20T12:38:35;25.10;59.40
1175;DHT22;576;48.418;10.074;2023-05-20T12:41:03;25.00;59.50
1175;DHT22;576;48.418;10.074;2023-05-20T12:43:32;25.00;59.70
1175;DHT22;576;48.418;10.074;2023-05-20T12:46:02;24.90;59.80
1175;DHT22;576;48.418;10.074;2023-05-20T12:48:32;24.90;59.90
1175;DHT22;576;48.418;10.074;2023-05-20T12:51:00;24.80;60.00
1175;DHT22;576;48.418;10.074;2023-05-20T12:53:28;24.80;60.00
1175;DHT22;576;48.418;10.074;2023-05-20T12:55:57;24.80;60.10
1175;DHT22;576;48.418;10.074;2023-05-20T12:58:25;24.80;60.00
1175;DHT22;576;48.418;10.074;2023-05-20T13:00:53;24.70;60.20
1175;DHT22;576;48.418;10.074;2023-05-20T13:03:21;24.70;60.10
1175;DHT22;576;48.418;10.074;2023-05-20T13:05:51;24.70;60.20
1175;DHT22;576;48.418;10.074;2023-05-20T13:08:19;24.60;60.20
1175;DHT22;576;48.418;10.074;2023-05-20T13:10:47;24.60;60.40
1175;DHT22;576;48.418;10.074;2023-05-20T13:13:15;24.50;60.60
1175;DHT22;576;48.418;10.074;2023-05-20T13:15:47;24.40;60.60
1175;DHT22;576;48.418;10.074;2023-05-20T13:18:16;24.40;60.40
1175;DHT22;576;48.418;10.074;2023-05-20T13:20:45;24.40;60.60
1175;DHT22;576;48.418;10.074;2023-05-20T13:23:15;24.40;60.70
1175;DHT22;576;48.418;10.074;2023-05-20T13:25:43;24.40;60.90
1175;DHT22;576;48.418;10.074;2023-05-20T13:28:11;24.40;60.70
1175;DHT22;576;48.418;10.074;2023-05-20T13:30:42;24.40;60.80
1175;DHT22;576;48.418;10.074;2023-05-20T13:33:10;24.40;60.80
1175;DHT22;576;48.418;10.074;2023-05-20T13:35:39;24.40;61.00
1175;DHT22;576;48.418;10.074;2023-05-20T13:38:07;24.50;61.00
1175;DHT22;576;48.418;10.074;2023-05-20T13:40:37;24.60;60.90
1175;DHT22;576;48.418;10.074;2023-05-20T13:43:05;24.70;60.70
1175;DHT22;576;48.418;10.074;2023-05-20T13:45:35;24.70;60.70
1175;DHT22;576;48.418;10.074;2023-05-20T13:48:04;24.70;60.70
1175;DHT22;576;48.418;10.074;2023-05-20T13:50:32;24.70;60.60
1175;DHT22;576;48.418;10.074;2023-05-20T13:53:01;24.70;60.50
1175;DHT22;576;48.418;10.074;2023-05-20T13:55:29;24.80;60.50
1175;DHT22;576;48.418;10.074;2023-05-20T13:57:59;24.80;60.20
1175;DHT22;576;48.418;10.074;2023-05-20T14:00:27;24.80;60.20
1175;DHT22;576;48.418;10.074;2023-05-20T14:02:55;24.90;60.10
1175;DHT22;576;48.418;10.074;2023-05-20T14:05:23;24.90;59.90
1175;DHT22;576;48.418;10.074;2023-05-20T14:07:52;25.00;59.90
1175;DHT22;576;48.418;10.074;2023-05-20T14:10:20;25.00;59.90
1175;DHT22;576;48.418;10.074;2023-05-20T14:12:48;25.00;59.80
1175;DHT22;576;48.418;10.074;2023-05-20T14:15:18;25.00;59.50
1175;DHT22;576;48.418;10.074;2023-05-20T14:17:46;25.00;59.70
1175;DHT22;576;48.418;10.074;2023-05-20T14:20:15;25.00;59.60
1175;DHT22;576;48.418;10.074;2023-05-20T14:22:43;25.10;59.60
1175;DHT22;576;48.418;10.074;2023-05-20T14:25:11;25.10;59.90
1175;DHT22;576;48.418;10.074;2023-05-20T14:27:40;25.00;59.90
1175;DHT22;576;48.418;10.074;2023-05-20T14:30:09;25.00;60.20
1175;DHT22;576;48.418;10.074;2023-05-20T14:32:39;25.00;59.90
1175;DHT22;576;48.418;10.074;2023-05-20T14:35:07;25.00;59.70
1175;DHT22;576;48.418;10.074;2023-05-20T14:37:36;25.10;59.50
1175;DHT22;576;48.418;10.074;2023-05-20T14:40:05;25.10;59.60
1175;DHT22;576;48.418;10.074;2023-05-20T14:42:35;25.10;59.50
1175;DHT22;576;48.418;10.074;2023-05-20T14:45:04;25.10;59.60
1175;DHT22;576;48.418;10.074;2023-05-20T14:47:32;25.00;59.70
1175;DHT22;576;48.418;10.074;2023-05-20T14:50:02;25.10;59.10
1175;DHT22;576;48.418;10.074;2023-05-20T14:52:30;25.10;59.10
1175;DHT22;576;48.418;10.074;2023-05-20T14:54:59;25.20;58.80
1175;DHT22;576;48.418;10.074;2023-05-20T14:57:27;25.30;58.90
1175;DHT22;576;48.418;10.074;2023-05-20T14:59:55;25.20;59.20
1175;DHT22;576;48.418;10.074;2023-05-20T15:02:23;25.20;59.00
1175;DHT22;576;48.418;10.074;2023-05-20T15:04:52;25.20;59.00
1175;DHT22;576;48.418;10.074;2023-05-20T15:07:21;25.30;58.80
1175;DHT22;576;48.418;10.074;2023-05-20T15:09:50;25.30;58.90
1175;DHT22;576;48.418;10.074;2023-05-20T15:12:18;25.30;58.90
1175;DHT22;576;48.418;10.074;2023-05-20T15:14:46;25.30;58.90
1175;DHT22;576;48.418;10.074;2023-05-20T15:17:15;25.30;59.00
1175;DHT22;576;48.418;10.074;2023-05-20T15:19:44;25.30;59.20
1175;DHT22;576;48.418;10.074;2023-05-20T15:22:12;25.30;58.60
1175;DHT22;576;48.418;10.074;2023-05-20T15:24:42;25.30;59.00
1175;DHT22;576;48.418;10.074;2023-05-20T15:27:10;25.20;59.20
1175;DHT22;576;48.418;10.074;2023-05-20T15:29:38;25.20;59.30
1175;DHT22;576;48.418;10.074;2023-05-20T15:32:07;25.20;59.40
1175;DHT22;576;48.418;10.074;2023-05-20T15:34:35;25.10;59.50
1175;DHT22;576;48.418;10.074;2023-05-20T15:37:03;25.10;59.60
1175;DHT22;576;48.418;10.074;2023-05-20T15:39:32;25.10;59.60
1175;DHT22;576;48.418;10.074;2023-05-20T15:42:05;25.10;59.60
1175;DHT22;576;48.418;10.074;2023-05-20T15:44:33;25.10;59.70
1175;DHT22;576;48.418;10.074;2023-05-20T15:47:02;25.10;59.70
1175;DHT22;576;48.418;10.074;2023-05-20T15:49:32;25.10;59.70
1175;DHT22;576;48.418;10.074;2023-05-20T15:52:00;25.10;59.60
1175;DHT22;576;48.418;10.074;2023-05-20T15:54:30;25.20;59.70
1175;DHT22;576;48.418;10.074;2023-05-20T15:56:58;25.20;59.40
1175;DHT22;576;48.418;10.074;2023-05-20T15:59:29;25.20;59.50
1175;DHT22;576;48.418;10.074;2023-05-20T16:01:58;25.20;59.30
1175;DHT22;576;48.418;10.074;2023-05-20T16:04:26;25.20;59.40
1175;DHT22;576;48.418;10.074;2023-05-20T16:06:55;25.20;59.30
1175;DHT22;576;48.418;10.074;2023-05-20T16:09:23;25.10;59.10
1175;DHT22;576;48.418;10.074;2023-05-20T16:11:51;25.10;59.20
1175;DHT22;576;48.418;10.074;2023-05-20T16:14:19;25.10;59.40
1175;DHT22;576;48.418;10.074;2023-05-20T16:16:49;25.00;59.70
1175;DHT22;576;48.418;10.074;2023-05-20T16:19:17;25.00;59.50
1175;DHT22;576;48.418;10.074;2023-05-20T16:21:45;25.00;59.10